Time;durP1;ratioP1;P1;durP2;ratioP2;P2;SDS_P1;SDS_P2;PMS_P1;PMS_P2;Temp;Humidity;BMP_temperature;BMP_pressure;BME280_temperature;BME280_humidity;BME280_pressure;Samples;Min_cycle;Max_cycle;Signal;HPM_P1;HPM_P2
2023/02/11 00:00:57;;;;;;;1999.90;999.90;;;-1.80;99.90;;;;;;5048543;28;20479;-69
2023/02/11 00:03:24;;;;;;;1999.90;999.90;;;-1.90;99.90;;;;;;5050280;28;20443;-67
2023/02/11 00:05:59;;;;;;;1999.90;999.90;;;-1.80;99.90;;;;;;5051312;28;20454;-68
2023/02/11 00:08:27;;;;;;;1999.90;999.90;;;-1.80;99.90;;;;;;5052184;28;20455;-68
2023/02/11 00:10:54;;;;;;;1999.90;999.90;;;-1.90;99.90;;;;;;5049413;28;20460;-67
2023/02/11 00:13:21;;;;;;;1999.90;999.90;;;-1.90;99.90;;;;;;5038762;28;20514;-66
2023/02/11 00:15:48;;;;;;;1999.90;999.90;;;-2.00;99.90;;;;;;5028419;28;20462;-68
2023/02/11 00:18:15;;;;;;;1999.90;999.90;;;-1.90;99.90;;;;;;5028855;28;20445;-67
2023/02/11 00:20:42;;;;;;;1999.90;999.90;;;-1.90;99.90;;;;;;5028626;28;20471;-67
2023/02/11 00:23:09;;;;;;;1999.90;999.90;;;-1.90;99.90;;;;;;5028344;28;21107;-69
2023/02/11 00:25:40;;;;;;;1999.90;999.90;;;-2.00;99.90;;;;;;5021283;28;20470;-67
2023/02/11 00:28:07;;;;;;;1999.90;999.90;;;-2.00;99.90;;;;;;5025118;28;20441;-66
2023/02/11 00:30:34;;;;;;;1999.90;999.90;;;-2.00;99.90;;;;;;5029064;28;20477;-67
2023/02/11 00:33:01;;;;;;;1999.90;999.90;;;-2.00;99.90;;;;;;5027997;28;21010;-66
2023/02/11 00:35:28;;;;;;;1999.90;999.90;;;-2.00;99.90;;;;;;5027516;28;20830;-67
2023/02/11 00:37:55;;;;;;;1999.90;999.90;;;-2.00;99.90;;;;;;5027945;28;20447;-67
2023/02/11 00:40:22;;;;;;;1999.90;999.90;;;-2.00;99.90;;;;;;5028093;28;20468;-69
2023/02/11 00:42:50;;;;;;;1999.90;999.90;;;-1.90;99.90;;;;;;5028839;28;20448;-67
2023/02/11 00:45:19;;;;;;;1999.90;999.90;;;-2.00;99.90;;;;;;5032243;28;20455;-67
2023/02/11 00:47:46;;;;;;;1999.90;999.90;;;-1.90;99.90;;;;;;5031510;28;20461;-67
2023/02/11 00:50:13;;;;;;;1999.90;999.90;;;-1.90;99.90;;;;;;5031931;28;20467;-68
2023/02/11 00:52:40;;;;;;;1999.90;999.90;;;-1.90;99.90;;;;;;5031882;28;20923;-66
2023/02/11 00:55:07;;;;;;;1999.90;999.90;;;-1.90;99.90;;;;;;5032435;28;21060;-67
2023/02/11 00:57:34;;;;;;;1999.90;999.90;;;-1.90;99.90;;;;;;5032054;28;20433;-66
2023/02/11 01:00:02;;;;;;;1999.90;999.90;;;-1.90;99.90;;;;;;5032146;28;20455;-69
2023/02/11 01:02:29;;;;;;;1999.90;999.90;;;-1.90;99.90;;;;;;5036716;28;20441;-69
2023/02/11 01:04:58;;;;;;;1999.90;999.90;;;-2.00;99.90;;;;;;5051641;28;20543;-67
2023/02/11 01:07:25;;;;;;;1999.90;999.90;;;-2.00;99.90;;;;;;5051794;28;20458;-67
2023/02/11 01:09:52;;;;;;;1999.90;999.90;;;-1.90;99.90;;;;;;5051579;28;21025;-68
2023/02/11 01:12:19;;;;;;;1999.90;999.90;;;-2.00;99.90;;;;;;5051451;28;20555;-67
2023/02/11 01:14:45;;;;;;;1999.90;999.90;;;-2.00;99.90;;;;;;5051406;28;20578;-68
2023/02/11 01:17:14;;;;;;;1999.90;999.90;;;-2.10;99.90;;;;;;5051662;28;20453;-67
2023/02/11 01:19:40;;;;;;;1999.90;999.90;;;-2.00;99.90;;;;;;5043648;28;20453;-67
2023/02/11 01:22:07;;;;;;;1999.90;999.90;;;-1.90;99.90;;;;;;5031382;28;20517;-67
2023/02/11 01:24:34;;;;;;;1999.90;999.90;;;-1.90;99.90;;;;;;5031009;28;20441;-68
2023/02/11 01:27:01;;;;;;;1999.90;999.90;;;-1.80;99.90;;;;;;5031632;28;20493;-67
2023/02/11 01:29:28;;;;;;;1999.90;999.90;;;-1.80;99.90;;;;;;5050872;28;20494;-68
2023/02/11 01:31:54;;;;;;;1999.90;999.90;;;-1.70;99.90;;;;;;5051449;28;20843;-67
2023/02/11 01:34:23;;;;;;;1999.90;999.90;;;-1.60;99.90;;;;;;5050898;28;20577;-67
2023/02/11 01:36:50;;;;;;;1999.90;999.90;;;-1.60;99.90;;;;;;5049837;28;20454;-67
2023/02/11 01:39:16;;;;;;;1999.90;999.90;;;-1.50;99.90;;;;;;5051456;28;20480;-68
2023/02/11 01:41:43;;;;;;;1999.90;999.90;;;-1.50;99.90;;;;;;5051020;28;20974;-67
2023/02/11 01:44:28;;;;;;;1999.90;999.90;;;-1.50;99.90;;;;;;5051107;28;20448;-68
2023/02/11 01:46:55;;;;;;;1999.90;999.90;;;-1.50;99.90;;;;;;5050794;28;20450;-68
2023/02/11 01:49:28;;;;;;;1999.90;999.90;;;-1.50;99.90;;;;;;5051152;28;21041;-68
2023/02/11 01:51:59;;;;;;;1999.90;999.90;;;-1.50;99.90;;;;;;5051020;28;20496;-67
2023/02/11 01:57:23;;;;;;;1999.90;999.90;;;-1.60;99.90;;;;;;5051103;28;20486;-68
2023/02/11 02:00:03;;;;;;;1999.90;999.90;;;-1.60;99.90;;;;;;5034907;28;20532;-68
2023/02/11 02:02:34;;;;;;;1999.90;999.90;;;-1.70;99.90;;;;;;5031040;28;20506;-68
2023/02/11 02:05:09;;;;;;;1999.90;999.90;;;-1.60;99.90;;;;;;5030870;28;20533;-67
2023/02/11 02:07:42;;;;;;;1999.90;999.90;;;-1.60;99.90;;;;;;5030036;28;20464;-66
2023/02/11 02:10:22;;;;;;;1999.90;999.90;;;-1.60;99.90;;;;;;5030702;28;20939;-68
2023/02/11 02:12:49;;;;;;;1999.90;999.90;;;-1.50;99.90;;;;;;5030068;28;20461;-68
2023/02/11 02:15:21;;;;;;;1999.90;999.90;;;-1.60;99.90;;;;;;5030305;28;20491;-67
2023/02/11 02:18:06;;;;;;;1999.90;999.90;;;-1.50;99.90;;;;;;5030037;28;20455;-67
2023/02/11 02:21:15;;;;;;;1999.90;999.90;;;-1.50;99.90;;;;;;5030309;28;20561;-68
2023/02/11 02:24:33;;;;;;;1999.90;999.90;;;-1.50;99.90;;;;;;5006771;28;20449;-66
2023/02/11 02:27:25;;;;;;;1999.90;999.90;;;-1.50;99.90;;;;;;5030243;28;20444;-66
2023/02/11 02:30:38;;;;;;;1999.90;999.90;;;-1.50;99.90;;;;;;5025296;28;20457;-67
2023/02/11 02:33:15;;;;;;;1999.90;999.90;;;-1.50;99.90;;;;;;5029809;28;20547;-67
2023/02/11 02:35:47;;;;;;;1999.90;999.90;;;-1.60;99.90;;;;;;5029782;28;20841;-68
2023/02/11 02:38:22;;;;;;;1999.90;999.90;;;-1.60;99.90;;;;;;5030144;28;20449;-66
2023/02/11 02:40:54;;;;;;;1999.90;999.90;;;-1.60;99.90;;;;;;5030152;28;20460;-65
2023/02/11 02:43:22;;;;;;;1999.90;999.90;;;-1.60;99.90;;;;;;5030004;28;20453;-67
2023/02/11 02:45:49;;;;;;;1999.90;999.90;;;-1.40;99.90;;;;;;5030892;28;20449;-67
2023/02/11 02:48:31;;;;;;;1999.90;999.90;;;-1.30;99.90;;;;;;5029891;28;20453;-68
2023/02/11 02:51:09;;;;;;;1999.90;999.90;;;-1.20;99.90;;;;;;5029969;28;20484;-68
2023/02/11 02:53:47;;;;;;;1999.90;999.90;;;-1.10;99.90;;;;;;5029908;28;20484;-68
2023/02/11 02:56:20;;;;;;;1999.90;999.90;;;-1.20;99.90;;;;;;5030001;28;20457;-67
2023/02/11 02:59:06;;;;;;;1999.90;999.90;;;-1.30;99.90;;;;;;5029463;28;20448;-66
2023/02/11 03:01:42;;;;;;;1999.90;999.90;;;-1.40;99.90;;;;;;5029174;28;20888;-68
2023/02/11 03:04:16;;;;;;;1999.90;999.90;;;-1.30;99.90;;;;;;5008993;28;20449;-67
2023/02/11 03:06:52;;;;;;;1999.90;999.90;;;-1.30;99.90;;;;;;5009788;28;20453;-68
2023/02/11 03:09:23;;;;;;;1999.90;999.90;;;-1.40;99.90;;;;;;5009734;28;20830;-68
2023/02/11 03:11:50;;;;;;;1999.90;999.90;;;-1.30;99.90;;;;;;5009873;28;20496;-67
2023/02/11 03:14:19;;;;;;;1999.90;999.90;;;-1.30;99.90;;;;;;5009816;28;20576;-67
2023/02/11 03:16:47;;;;;;;1999.90;999.90;;;-1.30;99.90;;;;;;5009212;28;20450;-67
2023/02/11 03:19:20;;;;;;;1999.90;999.90;;;-1.40;99.90;;;;;;5021719;28;20444;-67
2023/02/11 03:21:49;;;;;;;1999.90;999.90;;;-1.30;99.90;;;;;;5048885;28;20460;-68
2023/02/11 03:24:20;;;;;;;1999.90;999.90;;;-1.30;99.90;;;;;;5048587;28;20960;-68
2023/02/11 03:26:51;;;;;;;1999.90;999.90;;;-1.40;99.90;;;;;;5049294;28;20452;-68
2023/02/11 03:29:30;;;;;;;1999.90;999.90;;;-1.40;99.90;;;;;;5049003;28;20444;-67
2023/02/11 03:32:02;;;;;;;1999.90;999.90;;;-1.30;99.90;;;;;;5048877;28;20475;-67
2023/02/11 03:34:35;;;;;;;1999.90;999.90;;;-1.30;99.90;;;;;;5048271;28;21032;-68
2023/02/11 03:37:07;;;;;;;1999.90;999.90;;;-1.30;99.90;;;;;;5031635;28;20849;-67
2023/02/11 03:39:38;;;;;;;1999.90;999.90;;;-1.20;99.90;;;;;;5029311;28;20452;-68
2023/02/11 03:42:09;;;;;;;1999.90;999.90;;;-1.20;99.90;;;;;;5029254;28;20461;-68
2023/02/11 03:44:41;;;;;;;1999.90;999.90;;;-1.10;99.90;;;;;;5028940;28;20453;-68
2023/02/11 03:47:11;;;;;;;1999.90;999.90;;;-1.00;99.90;;;;;;5030322;28;20459;-68
2023/02/11 03:49:40;;;;;;;1999.90;999.90;;;-0.90;99.90;;;;;;5010316;28;20458;-68
2023/02/11 03:52:10;;;;;;;1999.90;999.90;;;-0.90;99.90;;;;;;5010247;28;20854;-67
2023/02/11 03:54:41;;;;;;;1999.90;999.90;;;-0.80;99.90;;;;;;5009470;28;20492;-68
2023/02/11 03:57:09;;;;;;;1999.90;999.90;;;-0.70;99.90;;;;;;5009092;28;20454;-67
2023/02/11 03:59:50;;;;;;;1999.90;999.90;;;-0.60;99.90;;;;;;5036308;28;20448;-68
2023/02/11 04:02:17;;;;;;;1999.90;999.90;;;-0.60;99.90;;;;;;5048857;28;20490;-67
2023/02/11 04:04:46;;;;;;;1999.90;999.90;;;-0.50;99.90;;;;;;5048840;28;20939;-67
2023/02/11 04:07:13;;;;;;;1999.90;999.90;;;-0.40;99.90;;;;;;5048741;28;20454;-67
2023/02/11 04:09:40;;;;;;;1999.90;999.90;;;-0.30;99.90;;;;;;5048411;28;20444;-68
2023/02/11 04:12:07;;;;;;;1999.90;999.90;;;-0.30;99.90;;;;;;5048576;28;20476;-68
2023/02/11 04:14:34;;;;;;;1999.90;999.90;;;-0.10;99.90;;;;;;5047529;28;20479;-67
2023/02/11 04:17:01;;;;;;;1999.90;999.90;;;-0.10;99.90;;;;;;5034743;28;20449;-67
2023/02/11 04:19:27;;;;;;;1999.90;999.90;;;0.00;99.90;;;;;;5032377;28;20448;-66
2023/02/11 04:21:55;;;;;;;1999.90;999.90;;;0.10;99.90;;;;;;5032153;28;20464;-67
2023/02/11 04:24:22;;;;;;;1999.90;999.90;;;0.20;99.90;;;;;;5032273;28;20444;-67
2023/02/11 04:26:49;;;;;;;1999.90;999.90;;;0.10;99.90;;;;;;5032404;28;20475;-67
2023/02/11 04:29:16;;;;;;;1999.90;999.90;;;0.10;99.90;;;;;;5032432;28;20854;-67
2023/02/11 04:31:43;;;;;;;1999.90;999.90;;;0.00;99.90;;;;;;5032316;28;20469;-68
2023/02/11 04:34:09;;;;;;;1999.90;999.90;;;0.00;99.90;;;;;;5031587;28;20480;-67
2023/02/11 04:36:36;;;;;;;1999.90;999.90;;;0.00;99.90;;;;;;5032322;28;20453;-67
2023/02/11 04:39:05;;;;;;;1999.90;999.90;;;0.10;99.90;;;;;;5032218;28;20453;-68
2023/02/11 04:41:31;;;;;;;1999.90;999.90;;;0.20;99.90;;;;;;5032041;28;20487;-67
2023/02/11 04:43:58;;;;;;;1999.90;999.90;;;0.30;99.90;;;;;;5032289;28;20467;-67
2023/02/11 04:46:25;;;;;;;1999.90;999.90;;;0.40;99.90;;;;;;5032161;28;20453;-68
2023/02/11 04:48:52;;;;;;;1999.90;999.90;;;0.40;99.90;;;;;;5032481;28;20449;-67
2023/02/11 04:51:19;;;;;;;1999.90;999.90;;;0.40;99.90;;;;;;5032006;28;20581;-67
2023/02/11 04:53:45;;;;;;;1999.90;999.90;;;0.50;99.90;;;;;;5031780;28;20444;-68
2023/02/11 04:56:14;;;;;;;1999.90;999.90;;;0.40;99.90;;;;;;5032053;28;20480;-67
2023/02/11 04:58:40;;;;;;;1999.90;999.90;;;0.50;99.90;;;;;;5031865;28;20437;-67
2023/02/11 05:01:08;;;;;;;1999.90;999.90;;;0.50;99.90;;;;;;5031953;28;20465;-67
2023/02/11 05:03:35;;;;;;;1999.90;999.90;;;0.50;99.90;;;;;;5032542;28;20452;-69
2023/02/11 05:06:03;;;;;;;1999.90;999.90;;;0.50;99.90;;;;;;5031865;28;20433;-67
2023/02/11 05:08:30;;;;;;;1999.90;999.90;;;0.60;99.90;;;;;;5031574;28;20445;-68
2023/02/11 05:10:56;;;;;;;1999.90;999.90;;;0.60;99.90;;;;;;5031877;28;20468;-66
2023/02/11 05:13:25;;;;;;;1999.90;999.90;;;0.70;99.90;;;;;;5031552;28;20441;-67
2023/02/11 05:15:52;;;;;;;1999.90;999.90;;;0.70;99.90;;;;;;5031603;28;20487;-68
2023/02/11 05:18:18;;;;;;;1999.90;999.90;;;0.70;99.90;;;;;;5031757;28;20445;-68
2023/02/11 05:20:45;;;;;;;1999.90;999.90;;;0.70;99.90;;;;;;5031294;28;20453;-67
2023/02/11 05:23:12;;;;;;;1999.90;999.90;;;0.70;99.90;;;;;;5030917;28;20441;-67
2023/02/11 05:25:39;;;;;;;1999.90;999.90;;;0.70;99.90;;;;;;5031646;28;20436;-67
2023/02/11 05:28:06;;;;;;;1999.90;999.90;;;0.80;99.90;;;;;;5031247;28;20440;-66
2023/02/11 05:30:34;;;;;;;1999.90;999.90;;;0.70;99.90;;;;;;5030016;28;21268;-67
2023/02/11 05:33:00;;;;;;;1999.90;999.90;;;0.70;99.90;;;;;;5031061;28;20440;-67
2023/02/11 05:35:27;;;;;;;1999.90;999.90;;;0.80;99.90;;;;;;5036794;28;20479;-67
2023/02/11 05:37:54;;;;;;;1999.90;999.90;;;0.80;99.90;;;;;;5050981;28;20447;-66
2023/02/11 05:40:21;;;;;;;1999.90;999.90;;;0.80;99.90;;;;;;5050880;28;20464;-67
2023/02/11 05:42:48;;;;;;;1999.90;999.90;;;0.90;99.90;;;;;;5050752;28;20463;-67
2023/02/11 05:45:14;;;;;;;1999.90;999.90;;;0.90;99.90;;;;;;5051113;28;20436;-68
2023/02/11 05:47:42;;;;;;;1999.90;999.90;;;1.00;99.90;;;;;;5051042;28;20440;-66
2023/02/11 05:50:09;;;;;;;1999.90;999.90;;;1.10;99.90;;;;;;5050791;28;20519;-66
2023/02/11 05:52:36;;;;;;;1999.90;999.90;;;1.10;99.90;;;;;;5049054;28;20444;-67
2023/02/11 05:55:03;;;;;;;1999.90;999.90;;;1.10;99.90;;;;;;5051055;28;20563;-67
2023/02/11 05:57:30;;;;;;;1999.90;999.90;;;1.20;99.90;;;;;;5050734;28;20922;-68
2023/02/11 05:59:57;;;;;;;1999.90;999.90;;;1.30;99.90;;;;;;5034389;28;20441;-67
2023/02/11 06:02:23;;;;;;;1999.90;999.90;;;1.30;99.90;;;;;;5030788;28;20452;-66
2023/02/11 06:04:52;;;;;;;1999.90;999.90;;;1.40;99.90;;;;;;5030287;28;20452;-68
2023/02/11 06:07:19;;;;;;;1999.90;999.90;;;1.40;99.90;;;;;;5030764;28;20448;-69
2023/02/11 06:09:46;;;;;;;1999.90;999.90;;;1.40;99.90;;;;;;5030355;28;20514;-68
2023/02/11 06:12:12;;;;;;;1999.90;999.90;;;1.40;99.90;;;;;;5030598;28;20467;-68
2023/02/11 06:14:39;;;;;;;1999.90;999.90;;;1.40;99.90;;;;;;5050454;28;20482;-68
2023/02/11 06:17:06;;;;;;;1999.90;999.90;;;1.50;99.90;;;;;;5050769;28;20458;-67
2023/02/11 06:19:33;;;;;;;1999.90;999.90;;;1.50;99.90;;;;;;5050148;28;20464;-67
2023/02/11 06:22:01;;;;;;;1999.90;999.90;;;1.50;99.90;;;;;;5049771;28;20476;-68
2023/02/11 06:24:28;;;;;;;1999.90;999.90;;;1.50;99.90;;;;;;5049916;28;20432;-68
2023/02/11 06:26:55;;;;;;;1999.90;999.90;;;1.60;99.90;;;;;;5050137;28;20448;-67
2023/02/11 06:29:21;;;;;;;1999.90;999.90;;;1.60;99.90;;;;;;5041854;28;20448;-69
2023/02/11 06:31:48;;;;;;;1999.90;999.90;;;1.60;99.90;;;;;;5030141;28;20477;-67
2023/02/11 06:34:15;;;;;;;1999.90;999.90;;;1.60;99.90;;;;;;5029702;28;20800;-67
2023/02/11 06:36:42;;;;;;;1999.90;999.90;;;1.60;99.90;;;;;;5032170;28;21032;-68
2023/02/11 06:39:12;;;;;;;1999.90;999.90;;;1.50;99.90;;;;;;5031316;28;20532;-66
2023/02/11 06:41:39;;;;;;;1999.90;999.90;;;1.60;99.90;;;;;;5029270;28;20472;-67
2023/02/11 06:44:06;;;;;;;1999.90;999.90;;;1.60;99.90;;;;;;5046076;28;20445;-67
2023/02/11 06:46:33;;;;;;;1999.90;999.90;;;1.60;99.90;;;;;;5036898;28;20458;-67
2023/02/11 06:49:00;;;;;;;1999.90;999.90;;;1.60;99.90;;;;;;5038838;28;20938;-67
2023/02/11 06:51:27;;;;;;;1999.90;999.90;;;1.70;99.90;;;;;;5043933;28;20470;-67
2023/02/11 06:53:54;;;;;;;1999.90;999.90;;;1.60;99.90;;;;;;5031529;28;20480;-67
2023/02/11 06:56:23;;;;;;;1999.90;999.90;;;1.70;99.90;;;;;;5045793;28;20567;-67
2023/02/11 06:58:53;;;;;;;1999.90;999.90;;;1.60;99.90;;;;;;5032337;28;20448;-67
2023/02/11 07:01:20;;;;;;;1999.90;999.90;;;1.70;99.90;;;;;;5029324;28;20471;-66
2023/02/11 07:03:47;;;;;;;1999.90;999.90;;;1.70;99.90;;;;;;5028874;28;20452;-68
2023/02/11 07:06:16;;;;;;;1999.90;999.90;;;1.60;99.90;;;;;;5031117;28;20445;-67
2023/02/11 07:08:44;;;;;;;1999.90;999.90;;;1.70;99.90;;;;;;5044361;28;20455;-68
2023/02/11 07:11:16;;;;;;;1999.90;999.90;;;1.70;99.90;;;;;;5048817;28;20502;-68
2023/02/11 07:13:44;;;;;;;1999.90;999.90;;;1.60;99.90;;;;;;5049327;28;20435;-69
2023/02/11 07:16:13;;;;;;;1999.90;999.90;;;1.60;99.90;;;;;;5049201;28;20567;-69
2023/02/11 07:18:41;;;;;;;1999.90;999.90;;;1.70;99.90;;;;;;5048801;28;20885;-68
2023/02/11 07:21:09;;;;;;;1999.90;999.90;;;1.70;99.90;;;;;;5048681;28;20467;-69
2023/02/11 07:23:38;;;;;;;1999.90;999.90;;;1.70;99.90;;;;;;5049186;28;20452;-67
2023/02/11 07:26:06;;;;;;;1999.90;999.90;;;1.70;99.90;;;;;;5049620;28;20452;-67
2023/02/11 07:28:35;;;;;;;1999.90;999.90;;;1.70;99.90;;;;;;5041344;28;20465;-67
2023/02/11 07:31:07;;;;;;;1999.90;999.90;;;1.70;99.90;;;;;;5030054;28;20472;-68
2023/02/11 07:33:34;;;;;;;1999.90;999.90;;;1.80;99.90;;;;;;5029075;28;20452;-67
2023/02/11 07:36:01;;;;;;;1999.90;999.90;;;1.70;99.90;;;;;;5028880;28;20488;-68
2023/02/11 07:38:28;;;;;;;1999.90;999.90;;;1.80;99.90;;;;;;5028922;28;20966;-68
2023/02/11 07:40:55;;;;;;;1999.90;999.90;;;1.90;99.90;;;;;;5028783;28;20899;-68
2023/02/11 07:43:21;;;;;;;1999.90;999.90;;;1.90;99.90;;;;;;5029446;28;20484;-68
2023/02/11 07:45:48;;;;;;;1999.90;999.90;;;2.10;99.90;;;;;;5029139;28;20559;-67
2023/02/11 07:48:16;;;;;;;1999.90;999.90;;;2.20;99.90;;;;;;5029582;28;20441;-68
2023/02/11 07:50:43;;;;;;;1999.90;999.90;;;2.20;99.90;;;;;;5035624;28;20475;-67
2023/02/11 07:53:11;;;;;;;1999.90;999.90;;;2.30;99.90;;;;;;5049943;28;20456;-65
2023/02/11 07:55:38;;;;;;;1999.90;999.90;;;2.30;99.90;;;;;;5053460;28;20487;-67
2023/02/11 07:58:04;;;;;;;1999.90;999.90;;;2.30;99.90;;;;;;5051429;28;20458;-67
2023/02/11 08:00:31;;;;;;;1999.90;999.90;;;2.40;99.90;;;;;;5053120;28;20486;-68
2023/02/11 08:02:58;;;;;;;1999.90;999.90;;;2.40;99.90;;;;;;5052558;28;20531;-67
2023/02/11 08:05:26;;;;;;;1999.90;999.90;;;2.50;99.90;;;;;;5034311;28;20752;-67
2023/02/11 08:07:54;;;;;;;1999.90;999.90;;;2.70;99.90;;;;;;5032735;28;20837;-68
2023/02/11 08:10:21;;;;;;;1999.90;999.90;;;2.70;99.90;;;;;;5032650;28;20469;-67
2023/02/11 08:12:48;;;;;;;1999.90;999.90;;;2.90;99.90;;;;;;5037780;28;20448;-69
2023/02/11 08:15:15;;;;;;;1999.90;999.90;;;2.90;99.90;;;;;;5052281;28;20483;-69
2023/02/11 08:17:41;;;;;;;1999.90;999.90;;;3.00;99.90;;;;;;5052690;28;20459;-68
2023/02/11 08:20:09;;;;;;;1999.90;999.90;;;3.00;99.90;;;;;;5052425;28;20481;-70
2023/02/11 08:22:37;;;;;;;1999.90;999.90;;;3.20;99.90;;;;;;5051983;28;20452;-70
2023/02/11 08:25:04;;;;;;;1999.90;999.90;;;3.30;99.90;;;;;;5052519;28;20452;-67
2023/02/11 08:27:31;;;;;;;1999.90;999.90;;;3.30;99.90;;;;;;5052035;28;20972;-69
2023/02/11 08:29:59;;;;;;;1999.90;999.90;;;3.40;99.90;;;;;;5040183;28;20452;-68
2023/02/11 08:32:26;;;;;;;1999.90;999.90;;;3.50;99.90;;;;;;5032206;28;20525;-67
2023/02/11 08:34:53;;;;;;;1999.90;999.90;;;3.40;99.90;;;;;;5032066;28;20467;-65
2023/02/11 08:37:21;;;;;;;1999.90;999.90;;;3.50;99.90;;;;;;5032377;28;20516;-64
2023/02/11 08:39:49;;;;;;;1999.90;999.90;;;3.50;99.90;;;;;;5032708;28;20451;-68
2023/02/11 08:42:16;;;;;;;1999.90;999.90;;;3.50;99.90;;;;;;5032437;28;20575;-68
2023/02/11 08:44:43;;;;;;;1999.90;999.90;;;3.50;99.90;;;;;;5031754;28;21140;-70
2023/02/11 08:47:10;;;;;;;1999.90;999.90;;;3.70;99.90;;;;;;5031434;28;20451;-68
2023/02/11 08:49:37;;;;;;;1999.90;999.90;;;3.90;99.90;;;;;;5039613;28;20956;-68
2023/02/11 08:52:04;;;;;;;1999.90;999.90;;;4.20;99.90;;;;;;5052017;28;20471;-69
2023/02/11 08:54:32;;;;;;;1999.90;999.90;;;4.40;99.90;;;;;;5052235;28;20466;-68
2023/02/11 08:57:01;;;;;;;1999.90;999.90;;;4.60;99.90;;;;;;5052506;28;20487;-67
2023/02/11 08:59:28;;;;;;;1999.90;999.90;;;4.80;99.90;;;;;;5048844;28;20440;-68
2023/02/11 09:01:55;;;;;;;1999.90;999.90;;;4.90;99.90;;;;;;5031634;28;20468;-69
2023/02/11 09:04:22;;;;;;;1999.90;999.90;;;5.10;99.90;;;;;;5031318;28;20459;-68
2023/02/11 09:06:48;;;;;;;1999.90;999.90;;;5.30;99.90;;;;;;5030571;28;20475;-68
2023/02/11 09:09:16;;;;;;;1999.90;999.90;;;5.60;99.90;;;;;;5031984;28;20448;-67
2023/02/11 09:11:44;;;;;;;1999.90;999.90;;;5.90;99.90;;;;;;5031899;28;20504;-67
2023/02/11 09:14:18;;;;;;;1999.90;999.90;;;6.10;99.90;;;;;;5038629;28;20777;-68
2023/02/11 09:16:44;;;;;;;1999.90;999.90;;;6.40;99.90;;;;;;5049985;28;20484;-68
2023/02/11 09:19:12;;;;;;;1999.90;999.90;;;6.70;99.90;;;;;;5051163;28;20455;-68
2023/02/11 09:21:38;;;;;;;1999.90;999.90;;;7.00;99.90;;;;;;5050557;28;21023;-69
2023/02/11 09:24:06;;;;;;;1999.90;999.90;;;7.10;99.90;;;;;;5050413;28;20946;-71
2023/02/11 09:26:35;;;;;;;1999.90;999.90;;;7.10;99.90;;;;;;5035725;28;20530;-69
2023/02/11 09:29:03;;;;;;;1999.90;999.90;;;7.10;99.90;;;;;;5030683;28;20829;-68
2023/02/11 09:31:32;;;;;;;1999.90;999.90;;;7.20;99.90;;;;;;5046134;28;20467;-69
2023/02/11 09:34:02;;;;;;;1999.90;999.90;;;7.10;99.90;;;;;;5050040;28;20440;-68
2023/02/11 09:36:31;;;;;;;1999.90;999.90;;;7.10;99.90;;;;;;5050057;28;21146;-68
2023/02/11 09:38:59;;;;;;;1999.90;999.90;;;7.00;99.90;;;;;;5050292;28;21261;-68
2023/02/11 09:41:39;;;;;;;1999.90;999.90;;;7.20;99.90;;;;;;5050518;28;20475;-69
2023/02/11 09:44:09;;;;;;;1999.90;999.90;;;7.30;99.90;;;;;;5050614;28;20444;-67
2023/02/11 09:46:41;;;;;;;1999.90;999.90;;;7.20;99.90;;;;;;5046365;28;21122;-68
2023/02/11 09:49:18;;;;;;;1999.90;999.90;;;7.40;99.90;;;;;;5030722;28;20472;-70
2023/02/11 09:51:49;;;;;;;1999.90;999.90;;;7.60;99.90;;;;;;5030299;28;20464;-69
2023/02/11 09:54:23;;;;;;;1999.90;999.90;;;7.80;99.90;;;;;;5029836;28;20965;-68
2023/02/11 09:56:50;;;;;;;1999.90;999.90;;;8.20;99.90;;;;;;5030121;28;20484;-66
2023/02/11 09:59:17;;;;;;;1999.90;999.90;;;8.50;99.90;;;;;;5040155;28;20474;-68
2023/02/11 10:01:50;;;;;;;1999.90;999.90;;;8.90;99.90;;;;;;5050130;28;20464;-68
2023/02/11 10:04:32;;;;;;;1999.90;999.90;;;9.20;99.90;;;;;;5049526;28;20619;-68
2023/02/11 10:07:06;;;;;;;1999.90;999.90;;;9.50;99.90;;;;;;5050029;28;20452;-70
2023/02/11 10:09:52;;;;;;;1999.90;999.90;;;9.80;99.90;;;;;;5050123;28;20451;-69
2023/02/11 10:12:34;;;;;;;1999.90;999.90;;;10.20;99.90;;;;;;5049506;28;20460;-66
2023/02/11 10:15:20;;;;;;;1999.90;999.90;;;10.60;99.50;;;;;;5049763;28;20448;-67
2023/02/11 10:18:01;;;;;;;1999.90;999.90;;;11.00;98.10;;;;;;5050331;28;20497;-65
2023/02/11 10:20:33;;;;;;;1999.90;999.90;;;11.00;98.30;;;;;;5049952;28;20467;-69
2023/02/11 10:23:02;;;;;;;1999.90;999.90;;;11.40;97.60;;;;;;5049712;28;20444;-68
2023/02/11 10:25:35;;;;;;;1999.90;999.90;;;11.80;97.40;;;;;;5049816;28;20967;-67
2023/02/11 10:28:11;;;;;;;1999.90;999.90;;;12.30;95.90;;;;;;5049729;28;20452;-67
2023/02/11 10:30:43;;;;;;;1999.90;999.90;;;12.70;95.10;;;;;;5048138;28;20471;-69
2023/02/11 10:33:16;;;;;;;1999.90;999.90;;;13.10;94.60;;;;;;5049461;28;20450;-69
2023/02/11 10:35:44;;;;;;;1999.90;999.90;;;13.30;94.00;;;;;;5049792;28;20466;-66
2023/02/11 10:38:11;;;;;;;1999.90;999.90;;;13.50;93.10;;;;;;5049781;28;20448;-65
2023/02/11 10:40:38;;;;;;;1999.90;999.90;;;13.80;92.30;;;;;;5049997;28;20937;-68
2023/02/11 10:43:12;;;;;;;1999.90;999.90;;;13.60;91.70;;;;;;5049457;28;20841;-66
2023/02/11 10:45:45;;;;;;;1999.90;999.90;;;13.20;92.00;;;;;;5039599;28;20455;-66
2023/02/11 10:48:39;;;;;;;1999.90;999.90;;;13.30;92.20;;;;;;5029850;28;20449;-67
2023/02/11 10:51:18;;;;;;;1999.90;999.90;;;13.10;92.50;;;;;;5030345;28;20854;-68
2023/02/11 10:53:45;;;;;;;1999.90;999.90;;;13.00;92.90;;;;;;5030163;28;20468;-69
2023/02/11 10:56:21;;;;;;;1999.90;999.90;;;12.90;93.50;;;;;;5029781;28;20484;-67
2023/02/11 10:58:57;;;;;;;1999.90;999.90;;;12.80;93.50;;;;;;5028995;28;20457;-67
2023/02/11 11:01:38;;;;;;;1999.90;999.90;;;12.90;93.30;;;;;;5029428;28;20568;-66
2023/02/11 11:04:06;;;;;;;1999.90;999.90;;;13.10;94.00;;;;;;5028917;28;20441;-67
2023/02/11 11:06:34;;;;;;;1999.90;999.90;;;13.70;92.80;;;;;;5029183;28;20498;-68
2023/02/11 11:09:01;;;;;;;1999.90;999.90;;;13.80;92.60;;;;;;5029060;28;20487;-68
2023/02/11 11:11:28;;;;;;;1999.90;999.90;;;13.80;92.50;;;;;;5029030;28;20473;-68
2023/02/11 11:13:57;;;;;;;1999.90;999.90;;;13.80;92.50;;;;;;5028727;28;20876;-67
2023/02/11 11:16:27;;;;;;;1999.90;999.90;;;13.90;93.00;;;;;;5029139;28;20488;-67
2023/02/11 11:19:20;;;;;;;1999.90;999.90;;;14.50;92.10;;;;;;5029073;28;20472;-69
2023/02/11 11:21:51;;;;;;;1999.90;999.90;;;14.70;91.90;;;;;;5029216;28;20472;-67
2023/02/11 11:24:21;;;;;;;1999.90;999.90;;;14.80;91.90;;;;;;5028749;28;21212;-67
2023/02/11 11:26:52;;;;;;;1999.90;999.90;;;14.80;92.20;;;;;;5028920;28;20445;-68
2023/02/11 11:29:28;;;;;;;1999.90;999.90;;;14.10;92.60;;;;;;5028774;28;20532;-67
2023/02/11 11:31:58;;;;;;;1999.90;999.90;;;13.50;93.60;;;;;;5028405;28;20480;-69
2023/02/11 11:34:29;;;;;;;1999.90;999.90;;;12.90;94.50;;;;;;5028657;28;20476;-69
2023/02/11 11:36:58;;;;;;;1999.90;999.90;;;12.30;95.80;;;;;;5028822;28;20480;-69
2023/02/11 11:39:27;;;;;;;1999.90;999.90;;;12.00;96.90;;;;;;5028981;28;20459;-66
2023/02/11 11:41:59;;;;;;;1999.90;999.90;;;11.90;96.90;;;;;;5029566;28;20468;-69
2023/02/11 11:44:31;;;;;;;1999.90;999.90;;;11.20;97.50;;;;;;5028027;28;20998;-67
2023/02/11 11:47:25;;;;;;;1999.90;999.90;;;10.80;98.60;;;;;;5028378;28;21109;-67
2023/02/11 11:50:09;;;;;;;1999.90;999.90;;;11.20;98.50;;;;;;5028311;28;20455;-67
2023/02/11 11:52:44;;;;;;;1999.90;999.90;;;11.80;98.10;;;;;;5028207;28;20458;-68
2023/02/11 11:55:17;;;;;;;1999.90;999.90;;;12.00;98.70;;;;;;5028051;28;20463;-67
2023/02/11 11:57:45;;;;;;;1999.90;999.90;;;12.00;98.20;;;;;;5021769;28;20484;-66
2023/02/11 12:00:20;;;;;;;1999.90;999.90;;;11.80;98.30;;;;;;5031617;28;20835;-67
2023/02/11 12:03:25;;;;;;;1999.90;999.90;;;11.50;98.90;;;;;;5025956;28;20977;-68
2023/02/11 12:06:07;;;;;;;1999.90;999.90;;;11.00;99.80;;;;;;5024391;28;20453;-67
2023/02/11 12:08:45;;;;;;;1999.90;999.90;;;11.00;99.90;;;;;;5026922;28;20460;-68
2023/02/11 12:11:18;;;;;;;1999.90;999.90;;;10.90;99.90;;;;;;5026806;28;20480;-72
2023/02/11 12:13:58;;;;;;;1999.90;999.90;;;11.00;99.90;;;;;;5025312;28;21140;-67
2023/02/11 12:16:36;;;;;;;1999.90;999.90;;;10.80;99.90;;;;;;5025783;28;20432;-68
2023/02/11 12:19:40;;;;;;;1999.90;999.90;;;11.20;99.90;;;;;;5026620;28;20453;-67
2023/02/11 12:22:18;;;;;;;1999.90;999.90;;;11.30;99.90;;;;;;5026619;28;20506;-67